ACM174 LICC-LICR
Flight info
| Callsign | ACM174 |
|---|---|
| Flight time | 0h 37m |
| Altitude | 2500 |
| Route | ISOLECICLOPIACITREZZA NORDESTACIREALE TAORMINA ROCCALUMERA TREMESTIERI |
| Aircraft | C172/L-SDFGIRWY/S |
Departure
| Time | 2026-04-16 07:56 |
|---|---|
| Airport | Catania-Fontanarossa Airport (LICC) |
Arrival
| Time | 2026-04-16 08:34 |
|---|---|
| Airport | Reggio Calabria Airport (LICR) |
| Time | Latitude | Longitude | Altitude | Speed | Heading |
|---|---|---|---|---|---|
| 2026-04-16 07:02 | 37.46900 | 15.05932 | 26 ft | 0 kts | 354° |
| 2026-04-16 07:47 | 37.46915 | 15.05926 | 28 ft | 7 kts | 317° |
| 2026-04-16 07:48 | 37.46920 | 15.05889 | 26 ft | 3 kts | 292° |
| 2026-04-16 07:48 | 37.46946 | 15.05869 | 26 ft | 1 kts | 315° |
| 2026-04-16 07:48 | 37.46999 | 15.05853 | 28 ft | 12 kts | 338° |
| 2026-04-16 07:48 | 37.47029 | 15.05794 | 26 ft | 9 kts | 284° |
| 2026-04-16 07:49 | 37.47018 | 15.05736 | 27 ft | 5 kts | 228° |
| 2026-04-16 07:49 | 37.46998 | 15.05712 | 26 ft | 3 kts | 217° |
| 2026-04-16 07:49 | 37.46961 | 15.05668 | 27 ft | 10 kts | 226° |
| 2026-04-16 07:49 | 37.46912 | 15.05614 | 26 ft | 9 kts | 224° |
| 2026-04-16 07:50 | 37.46870 | 15.05565 | 26 ft | 8 kts | 217° |
| 2026-04-16 07:50 | 37.46822 | 15.05511 | 26 ft | 10 kts | 222° |
| 2026-04-16 07:50 | 37.46771 | 15.05475 | 26 ft | 5 kts | 184° |
| 2026-04-16 07:50 | 37.46739 | 15.05478 | 27 ft | 6 kts | 175° |
| 2026-04-16 07:51 | 37.46711 | 15.05474 | 27 ft | 4 kts | 195° |
| 2026-04-16 07:51 | 37.46691 | 15.05468 | 28 ft | 0 kts | 184° |
| 2026-04-16 07:53 | 37.46687 | 15.05469 | 28 ft | 5 kts | 168° |
| 2026-04-16 07:54 | 37.46629 | 15.05478 | 30 ft | 8 kts | 149° |
| 2026-04-16 07:54 | 37.46589 | 15.05539 | 29 ft | 8 kts | 103° |
| 2026-04-16 07:54 | 37.46588 | 15.05562 | 29 ft | 0 kts | 84° |
| 2026-04-16 07:55 | 37.46590 | 15.05581 | 29 ft | 14 kts | 85° |
| 2026-04-16 07:55 | 37.46631 | 15.05912 | 45 ft | 57 kts | 76° |
| 2026-04-16 07:55 | 37.46663 | 15.06550 | 122 ft | 83 kts | 81° |
| 2026-04-16 07:55 | 37.46726 | 15.07307 | 286 ft | 89 kts | 79° |
| 2026-04-16 07:56 | 37.46798 | 15.08131 | 447 ft | 98 kts | 80° |
| 2026-04-16 07:56 | 37.47014 | 15.08934 | 590 ft | 100 kts | 50° |
| 2026-04-16 07:56 | 37.47562 | 15.09517 | 625 ft | 106 kts | 34° |
| 2026-04-16 07:56 | 37.48218 | 15.09931 | 718 ft | 107 kts | 17° |
| 2026-04-16 07:57 | 37.48870 | 15.10173 | 733 ft | 95 kts | 26° |
| 2026-04-16 07:57 | 37.49448 | 15.10552 | 782 ft | 91 kts | 32° |
| 2026-04-16 07:57 | 37.49961 | 15.10996 | 848 ft | 92 kts | 35° |
| 2026-04-16 07:57 | 37.50470 | 15.11496 | 861 ft | 97 kts | 39° |
| 2026-04-16 07:58 | 37.50991 | 15.12025 | 906 ft | 93 kts | 38° |
| 2026-04-16 07:58 | 37.51463 | 15.12551 | 948 ft | 91 kts | 42° |
| 2026-04-16 07:58 | 37.51974 | 15.13062 | 950 ft | 93 kts | 33° |
| 2026-04-16 07:58 | 37.52550 | 15.13422 | 952 ft | 89 kts | 27° |
| 2026-04-16 07:59 | 37.53101 | 15.13750 | 930 ft | 85 kts | 28° |
| 2026-04-16 07:59 | 37.53609 | 15.14091 | 947 ft | 80 kts | 34° |
| 2026-04-16 07:59 | 37.54027 | 15.14500 | 979 ft | 72 kts | 40° |
| 2026-04-16 07:59 | 37.54433 | 15.14927 | 977 ft | 79 kts | 38° |
| 2026-04-16 08:00 | 37.54872 | 15.15362 | 990 ft | 81 kts | 36° |
| 2026-04-16 08:00 | 37.55339 | 15.15763 | 1057 ft | 82 kts | 31° |
| 2026-04-16 08:00 | 37.55827 | 15.16166 | 1082 ft | 85 kts | 29° |
| 2026-04-16 08:00 | 37.56324 | 15.16585 | 1105 ft | 90 kts | 35° |
| 2026-04-16 08:01 | 37.56830 | 15.17117 | 1101 ft | 96 kts | 42° |
| 2026-04-16 08:01 | 37.57305 | 15.17736 | 1059 ft | 98 kts | 44° |
| 2026-04-16 08:01 | 37.57788 | 15.18304 | 1043 ft | 94 kts | 39° |
| 2026-04-16 08:01 | 37.58282 | 15.18865 | 893 ft | 98 kts | 42° |
| 2026-04-16 08:02 | 37.58755 | 15.19406 | 917 ft | 88 kts | 41° |
| 2026-04-16 08:02 | 37.59534 | 15.20515 | 1050 ft | 82 kts | 47° |
| 2026-04-16 08:02 | 37.59909 | 15.21101 | 1059 ft | 88 kts | 47° |
| 2026-04-16 08:03 | 37.60294 | 15.21697 | 1116 ft | 89 kts | 47° |
| 2026-04-16 08:03 | 37.60550 | 15.22106 | 1176 ft | 86 kts | 49° |
| 2026-04-16 08:03 | 37.60949 | 15.22658 | 1246 ft | 85 kts | 42° |
| 2026-04-16 08:03 | 37.61444 | 15.23036 | 1228 ft | 85 kts | 20° |
| 2026-04-16 08:04 | 37.62030 | 15.23191 | 1262 ft | 85 kts | 12° |
| 2026-04-16 08:04 | 37.62613 | 15.23296 | 1353 ft | 87 kts | 9° |
| 2026-04-16 08:04 | 37.63200 | 15.23407 | 1436 ft | 83 kts | 13° |
| 2026-04-16 08:04 | 37.63757 | 15.23528 | 1523 ft | 79 kts | 13° |
| 2026-04-16 08:05 | 37.64302 | 15.23632 | 1580 ft | 78 kts | 11° |
| 2026-04-16 08:05 | 37.64861 | 15.23696 | 1670 ft | 82 kts | 9° |
| 2026-04-16 08:05 | 37.65442 | 15.23768 | 1730 ft | 85 kts | 7° |
| 2026-04-16 08:05 | 37.66034 | 15.23824 | 1812 ft | 85 kts | 7° |
| 2026-04-16 08:06 | 37.66617 | 15.23919 | 1886 ft | 85 kts | 14° |
| 2026-04-16 08:06 | 37.67193 | 15.24113 | 1972 ft | 87 kts | 20° |
| 2026-04-16 08:06 | 37.67775 | 15.24369 | 2025 ft | 91 kts | 24° |
| 2026-04-16 08:06 | 37.68345 | 15.24675 | 2037 ft | 86 kts | 30° |
| 2026-04-16 08:07 | 37.68870 | 15.24964 | 2042 ft | 81 kts | 26° |
| 2026-04-16 08:07 | 37.69422 | 15.25227 | 2017 ft | 87 kts | 22° |
| 2026-04-16 08:07 | 37.69999 | 15.25455 | 2027 ft | 86 kts | 19° |
| 2026-04-16 08:07 | 37.70571 | 15.25653 | 2043 ft | 86 kts | 18° |
| 2026-04-16 08:08 | 37.71153 | 15.25838 | 2031 ft | 88 kts | 18° |
| 2026-04-16 08:08 | 37.71749 | 15.26007 | 2033 ft | 87 kts | 18° |
| 2026-04-16 08:08 | 37.72353 | 15.26143 | 2027 ft | 91 kts | 10° |
| 2026-04-16 08:08 | 37.72989 | 15.26214 | 2035 ft | 91 kts | 9° |
| 2026-04-16 08:09 | 37.73621 | 15.26274 | 2027 ft | 92 kts | 8° |
| 2026-04-16 08:09 | 37.74248 | 15.26357 | 2030 ft | 88 kts | 14° |
| 2026-04-16 08:09 | 37.74835 | 15.26515 | 2078 ft | 81 kts | 19° |
| 2026-04-16 08:09 | 37.75416 | 15.26679 | 2026 ft | 89 kts | 12° |
| 2026-04-16 08:10 | 37.76036 | 15.26780 | 2033 ft | 89 kts | 11° |
| 2026-04-16 08:10 | 37.76656 | 15.26892 | 2040 ft | 91 kts | 13° |
| 2026-04-16 08:10 | 37.77288 | 15.27040 | 2015 ft | 93 kts | 13° |
| 2026-04-16 08:10 | 37.77928 | 15.27106 | 2041 ft | 92 kts | 1° |
| 2026-04-16 08:11 | 37.78572 | 15.27111 | 2030 ft | 94 kts | 7° |
| 2026-04-16 08:11 | 37.79224 | 15.27210 | 2036 ft | 96 kts | 14° |
| 2026-04-16 08:11 | 37.79856 | 15.27353 | 2093 ft | 89 kts | 13° |
| 2026-04-16 08:11 | 37.80471 | 15.27502 | 2107 ft | 94 kts | 15° |
| 2026-04-16 08:12 | 37.81149 | 15.27699 | 2021 ft | 102 kts | 15° |
| 2026-04-16 08:12 | 37.81827 | 15.27901 | 2034 ft | 98 kts | 18° |
| 2026-04-16 08:12 | 37.82429 | 15.28159 | 2131 ft | 89 kts | 30° |
| 2026-04-16 08:12 | 37.83041 | 15.28400 | 2103 ft | 96 kts | 11° |
| 2026-04-16 08:13 | 37.83735 | 15.28533 | 2044 ft | 101 kts | 13° |
| 2026-04-16 08:13 | 37.84428 | 15.28685 | 2020 ft | 98 kts | 17° |
| 2026-04-16 08:13 | 37.85048 | 15.28973 | 1957 ft | 93 kts | 26° |
| 2026-04-16 08:13 | 37.85598 | 15.29368 | 1902 ft | 93 kts | 37° |
| 2026-04-16 08:14 | 37.86108 | 15.29883 | 1874 ft | 92 kts | 42° |
| 2026-04-16 08:14 | 37.86602 | 15.30369 | 1873 ft | 86 kts | 39° |
| 2026-04-16 08:14 | 37.87077 | 15.30782 | 1844 ft | 86 kts | 32° |
| 2026-04-16 08:14 | 37.87586 | 15.31160 | 1857 ft | 82 kts | 35° |
| 2026-04-16 08:15 | 37.88059 | 15.31564 | 1925 ft | 83 kts | 37° |
| 2026-04-16 08:15 | 37.88219 | 15.31706 | 1942 ft | 84 kts | 38° |
| 2026-04-16 08:16 | 37.88697 | 15.32158 | 1968 ft | 90 kts | 37° |
| 2026-04-16 08:16 | 37.89200 | 15.32615 | 2045 ft | 91 kts | 38° |
| 2026-04-16 08:16 | 37.89733 | 15.33085 | 2058 ft | 97 kts | 37° |
| 2026-04-16 08:16 | 37.90302 | 15.33598 | 2030 ft | 100 kts | 36° |
| 2026-04-16 08:17 | 37.90875 | 15.34077 | 2036 ft | 99 kts | 36° |
| 2026-04-16 08:17 | 37.91433 | 15.34565 | 2055 ft | 99 kts | 36° |
| 2026-04-16 08:17 | 37.92009 | 15.35053 | 2050 ft | 102 kts | 33° |
| 2026-04-16 08:17 | 37.92595 | 15.35556 | 2092 ft | 101 kts | 38° |
| 2026-04-16 08:18 | 37.93184 | 15.36082 | 2020 ft | 105 kts | 38° |
| 2026-04-16 08:19 | 37.97269 | 15.39846 | 2094 ft | 103 kts | 38° |
| 2026-04-16 08:20 | 37.97865 | 15.40379 | 2065 ft | 101 kts | 34° |
| 2026-04-16 08:20 | 37.98446 | 15.40849 | 2044 ft | 97 kts | 34° |
| 2026-04-16 08:20 | 37.99002 | 15.41311 | 2021 ft | 93 kts | 37° |
| 2026-04-16 08:20 | 37.99542 | 15.41770 | 1994 ft | 93 kts | 35° |
| 2026-04-16 08:21 | 38.00091 | 15.42236 | 2004 ft | 96 kts | 35° |
| 2026-04-16 08:21 | 38.00643 | 15.42706 | 2065 ft | 96 kts | 35° |
| 2026-04-16 08:21 | 38.01222 | 15.43177 | 2069 ft | 101 kts | 34° |
| 2026-04-16 08:21 | 38.01822 | 15.43645 | 2115 ft | 101 kts | 34° |
| 2026-04-16 08:22 | 38.02397 | 15.44097 | 2118 ft | 95 kts | 34° |
| 2026-04-16 08:22 | 38.02946 | 15.44540 | 2124 ft | 93 kts | 33° |
| 2026-04-16 08:22 | 38.03512 | 15.44970 | 2089 ft | 97 kts | 33° |
| 2026-04-16 08:22 | 38.04092 | 15.45455 | 2030 ft | 101 kts | 35° |
| 2026-04-16 08:23 | 38.04655 | 15.45910 | 2066 ft | 92 kts | 33° |
| 2026-04-16 08:23 | 38.05229 | 15.46313 | 2033 ft | 96 kts | 20° |
| 2026-04-16 08:23 | 38.05828 | 15.46654 | 2030 ft | 96 kts | 29° |
| 2026-04-16 08:23 | 38.06405 | 15.47075 | 2036 ft | 95 kts | 30° |
| 2026-04-16 08:24 | 38.06972 | 15.47474 | 2050 ft | 93 kts | 28° |
| 2026-04-16 08:24 | 38.07542 | 15.47860 | 2068 ft | 94 kts | 28° |
| 2026-04-16 08:24 | 38.08119 | 15.48252 | 2112 ft | 94 kts | 29° |
| 2026-04-16 08:24 | 38.08700 | 15.48655 | 2132 ft | 97 kts | 30° |
| 2026-04-16 08:25 | 38.09280 | 15.49089 | 2113 ft | 99 kts | 33° |
| 2026-04-16 08:25 | 38.09864 | 15.49578 | 2032 ft | 101 kts | 35° |
| 2026-04-16 08:25 | 38.10425 | 15.50079 | 1917 ft | 96 kts | 35° |
| 2026-04-16 08:25 | 38.10957 | 15.50562 | 1818 ft | 92 kts | 34° |
| 2026-04-16 08:26 | 38.11411 | 15.50966 | 1746 ft | 90 kts | 34° |
| 2026-04-16 08:26 | 38.11919 | 15.51425 | 1647 ft | 91 kts | 36° |
| 2026-04-16 08:26 | 38.12342 | 15.51998 | 1590 ft | 88 kts | 56° |
| 2026-04-16 08:26 | 38.12450 | 15.52753 | 1492 ft | 91 kts | 93° |
| 2026-04-16 08:27 | 38.12249 | 15.53503 | 1422 ft | 89 kts | 111° |
| 2026-04-16 08:27 | 38.11943 | 15.54148 | 1433 ft | 84 kts | 123° |
| 2026-04-16 08:27 | 38.11528 | 15.54768 | 1461 ft | 101 kts | 126° |
| 2026-04-16 08:27 | 38.11065 | 15.55475 | 1510 ft | 107 kts | 127° |
| 2026-04-16 08:28 | 38.10578 | 15.56170 | 1499 ft | 107 kts | 131° |
| 2026-04-16 08:28 | 38.10074 | 15.56845 | 1491 ft | 100 kts | 130° |
| 2026-04-16 08:28 | 38.09593 | 15.57425 | 1442 ft | 92 kts | 134° |
| 2026-04-16 08:28 | 38.09111 | 15.57965 | 1426 ft | 94 kts | 134° |
| 2026-04-16 08:29 | 38.08628 | 15.58556 | 1423 ft | 99 kts | 133° |
| 2026-04-16 08:29 | 38.08181 | 15.59247 | 1367 ft | 105 kts | 124° |
| 2026-04-16 08:29 | 38.07751 | 15.60004 | 1223 ft | 106 kts | 120° |
| 2026-04-16 08:29 | 38.07338 | 15.60777 | 1110 ft | 106 kts | 120° |
| 2026-04-16 08:30 | 38.06890 | 15.61511 | 1003 ft | 107 kts | 141° |
| 2026-04-16 08:30 | 38.06225 | 15.61909 | 929 ft | 104 kts | 164° |
| 2026-04-16 08:30 | 38.05556 | 15.62026 | 955 ft | 91 kts | 181° |
| 2026-04-16 08:30 | 38.04957 | 15.62185 | 935 ft | 84 kts | 161° |
| 2026-04-16 08:31 | 38.04407 | 15.62357 | 877 ft | 86 kts | 167° |
| 2026-04-16 08:31 | 38.03778 | 15.62535 | 857 ft | 96 kts | 165° |
| 2026-04-16 08:31 | 38.03110 | 15.62743 | 971 ft | 100 kts | 148° |
| 2026-04-16 08:31 | 38.02668 | 15.63363 | 1040 ft | 88 kts | 106° |
| 2026-04-16 08:32 | 38.02564 | 15.64068 | 984 ft | 79 kts | 82° |
| 2026-04-16 08:32 | 38.02760 | 15.64742 | 916 ft | 86 kts | 55° |
| 2026-04-16 08:32 | 38.03091 | 15.65342 | 983 ft | 81 kts | 49° |
| 2026-04-16 08:32 | 38.03545 | 15.65783 | 1011 ft | 84 kts | 29° |
| 2026-04-16 08:33 | 38.04049 | 15.66171 | 1028 ft | 87 kts | 24° |
| 2026-04-16 08:33 | 38.04647 | 15.66364 | 850 ft | 92 kts | 2° |
| 2026-04-16 08:33 | 38.05304 | 15.66244 | 551 ft | 99 kts | 345° |
| 2026-04-16 08:33 | 38.05940 | 15.65924 | 317 ft | 96 kts | 335° |
| 2026-04-16 08:34 | 38.06522 | 15.65542 | 101 ft | 92 kts | 333° |
| 2026-04-16 08:34 | 38.07050 | 15.65201 | 67 ft | 72 kts | 335° |
| 2026-04-16 08:34 | 38.07367 | 15.65003 | 79 ft | 27 kts | 334° |
| 2026-04-16 08:34 | 38.07437 | 15.64955 | 83 ft | 11 kts | 321° |
| 2026-04-16 08:35 | 38.07477 | 15.64943 | 80 ft | 6 kts | 96° |
| 2026-04-16 08:35 | 38.07425 | 15.64966 | 82 ft | 11 kts | 152° |
| 2026-04-16 08:35 | 38.07407 | 15.65048 | 80 ft | 11 kts | 60° |
| 2026-04-16 08:35 | 38.07418 | 15.65074 | 74 ft | 0 kts | 64° |
| 2026-04-16 08:36 | 38.07431 | 15.65106 | 75 ft | 6 kts | 63° |
| 2026-04-16 08:36 | 38.07437 | 15.65120 | 76 ft | 0 kts | 67° |